createdAt,value
2017-10-09T00:02:07.906Z,5.10
2017-10-09T00:04:35.475Z,5.10
2017-10-09T00:07:03.031Z,5.10
2017-10-09T00:09:30.876Z,5.10
2017-10-09T00:11:58.444Z,5.10
2017-10-09T00:14:26.024Z,5.10
2017-10-09T00:16:53.580Z,5.10
2017-10-09T00:19:21.172Z,5.00
2017-10-09T00:21:48.741Z,5.00
2017-10-09T00:24:16.544Z,5.00
2017-10-09T00:26:44.236Z,4.90
2017-10-09T00:29:11.801Z,4.90
2017-10-09T00:31:40.736Z,4.90
2017-10-09T00:34:08.297Z,4.70
2017-10-09T00:36:35.884Z,4.70
2017-10-09T00:39:03.442Z,4.60
2017-10-09T00:41:31.032Z,4.60
2017-10-09T00:43:58.584Z,4.60
2017-10-09T00:46:26.170Z,4.50
2017-10-09T00:48:54.491Z,4.50
2017-10-09T00:51:22.233Z,4.50
2017-10-09T00:53:49.848Z,4.40
2017-10-09T00:56:17.516Z,4.40
2017-10-09T00:58:45.100Z,4.30
2017-10-09T01:01:13.424Z,4.30
2017-10-09T01:03:41.252Z,4.30
2017-10-09T01:06:08.816Z,4.30
2017-10-09T01:08:36.412Z,4.30
2017-10-09T01:11:04.266Z,4.30
2017-10-09T01:13:32.133Z,4.30
2017-10-09T01:16:00.020Z,4.40
2017-10-09T01:18:29.405Z,4.40
2017-10-09T01:20:57.397Z,4.40
2017-10-09T01:23:24.982Z,4.40
2017-10-09T01:25:52.568Z,4.40
2017-10-09T01:28:20.200Z,4.40
2017-10-09T01:30:47.969Z,4.40
2017-10-09T01:33:16.292Z,4.40
2017-10-09T01:35:43.848Z,4.40
2017-10-09T01:38:11.436Z,4.40
2017-10-09T01:40:39.975Z,4.40
2017-10-09T01:43:08.320Z,4.30
2017-10-09T01:45:36.712Z,4.20
2017-10-09T01:48:05.057Z,4.20
2017-10-09T01:50:32.621Z,4.20
2017-10-09T01:53:00.247Z,4.20
2017-10-09T01:55:27.808Z,4.20
2017-10-09T01:57:55.366Z,4.20
2017-10-09T02:00:22.945Z,4.20
2017-10-09T02:02:50.656Z,4.10
2017-10-09T02:05:18.325Z,4.10
2017-10-09T02:07:46.656Z,4.10
2017-10-09T02:10:14.244Z,4.10
2017-10-09T02:12:41.803Z,4.10
2017-10-09T02:15:09.381Z,4.10
2017-10-09T02:17:36.940Z,4.10
2017-10-09T02:20:04.532Z,4.10
2017-10-09T02:22:32.108Z,4.00
2017-10-09T02:24:59.924Z,4.00
2017-10-09T02:27:27.500Z,3.90
2017-10-09T02:29:55.832Z,3.80
2017-10-09T02:32:23.416Z,3.80
2017-10-09T02:34:58.495Z,3.70
2017-10-09T02:37:26.080Z,3.70
2017-10-09T02:39:53.648Z,3.70
2017-10-09T02:42:21.232Z,3.70
2017-10-09T02:44:48.803Z,3.70
2017-10-09T02:47:16.396Z,3.70
2017-10-09T02:49:43.962Z,3.70
2017-10-09T02:52:11.588Z,3.70
2017-10-09T02:54:41.588Z,3.70
2017-10-09T02:57:09.191Z,3.70
2017-10-09T02:59:38.448Z,3.80
2017-10-09T03:02:06.008Z,3.80
2017-10-09T03:04:33.595Z,3.80
2017-10-09T03:07:01.924Z,3.80
2017-10-09T03:09:29.526Z,3.70
2017-10-09T03:11:57.877Z,3.70
2017-10-09T03:14:26.095Z,3.70
2017-10-09T03:16:54.420Z,3.70
2017-10-09T03:19:22.004Z,3.60
2017-10-09T03:21:50.595Z,3.60
2017-10-09T03:24:21.643Z,3.60
2017-10-09T03:29:50.487Z,3.60
2017-10-09T03:32:19.121Z,3.70
2017-10-09T03:34:46.708Z,3.60
2017-10-09T03:37:14.270Z,3.70
2017-10-09T03:39:41.865Z,3.70
2017-10-09T03:42:09.472Z,3.70
2017-10-09T03:44:37.064Z,3.70
2017-10-09T03:47:05.392Z,3.70
2017-10-09T03:49:32.990Z,3.70
2017-10-09T03:52:00.555Z,3.70
2017-10-09T03:54:28.149Z,3.70
2017-10-09T03:56:55.720Z,3.70
2017-10-09T03:59:23.304Z,3.80
2017-10-09T04:01:50.875Z,3.80
2017-10-09T04:04:18.864Z,3.80
2017-10-09T04:06:46.436Z,3.90
2017-10-09T04:09:14.777Z,4.00
2017-10-09T04:11:42.372Z,4.00
2017-10-09T04:14:10.709Z,4.10
2017-10-09T04:16:40.768Z,4.20
2017-10-09T04:19:08.336Z,4.20
2017-10-09T04:21:36.704Z,4.20
2017-10-09T04:24:04.868Z,4.20
2017-10-09T04:26:32.477Z,4.20
2017-10-09T04:29:00.055Z,4.20
2017-10-09T04:31:27.620Z,4.20
2017-10-09T04:33:55.209Z,4.20
2017-10-09T04:36:22.788Z,4.20
2017-10-09T04:38:51.167Z,4.30
2017-10-09T04:41:19.541Z,4.40
2017-10-09T04:43:47.912Z,4.30
2017-10-09T04:46:15.481Z,4.40
2017-10-09T04:48:43.072Z,4.40
2017-10-09T04:51:10.640Z,4.40
2017-10-09T04:53:39.199Z,4.40
2017-10-09T04:56:07.531Z,4.50
2017-10-09T04:58:35.123Z,4.50
2017-10-09T05:01:02.696Z,4.50
2017-10-09T05:03:31.068Z,4.60
2017-10-09T05:05:58.636Z,4.60
2017-10-09T05:08:26.976Z,4.60
2017-10-09T05:10:54.572Z,4.60
2017-10-09T05:13:22.905Z,4.70
2017-10-09T05:15:50.499Z,4.70
2017-10-09T05:18:19.576Z,4.70
2017-10-09T05:20:47.184Z,4.60
2017-10-09T05:23:15.527Z,4.70
2017-10-09T05:25:43.099Z,4.70
2017-10-09T05:28:10.705Z,4.70
2017-10-09T05:30:39.631Z,4.80
2017-10-09T05:33:07.223Z,4.80
2017-10-09T05:35:34.787Z,4.90
2017-10-09T05:38:03.149Z,4.90
2017-10-09T05:40:30.715Z,4.90
2017-10-09T05:42:58.309Z,5.00
2017-10-09T05:45:25.883Z,5.00
2017-10-09T05:47:53.453Z,5.00
2017-10-09T05:50:21.044Z,5.10
2017-10-09T05:52:48.613Z,5.20
2017-10-09T05:55:16.208Z,5.30
2017-10-09T05:57:43.801Z,5.30
2017-10-09T06:00:11.400Z,5.40
2017-10-09T06:02:41.430Z,5.40
2017-10-09T06:05:09.767Z,5.50
2017-10-09T06:07:39.076Z,5.50
2017-10-09T06:10:06.673Z,5.60
2017-10-09T06:12:35.004Z,5.70
2017-10-09T06:15:02.608Z,5.70
2017-10-09T06:17:30.444Z,5.70
2017-10-09T06:19:58.017Z,5.70
2017-10-09T06:22:25.608Z,5.80
2017-10-09T06:24:53.944Z,5.90
2017-10-09T06:27:21.537Z,5.80
2017-10-09T06:29:49.104Z,5.90
2017-10-09T06:32:17.469Z,6.00
2017-10-09T06:34:45.808Z,6.00
2017-10-09T06:37:13.412Z,6.00
2017-10-09T06:39:41.012Z,6.10
2017-10-09T06:42:08.600Z,6.20
2017-10-09T06:44:36.168Z,6.20
2017-10-09T06:47:03.992Z,6.30
2017-10-09T06:49:31.568Z,6.30
2017-10-09T06:51:59.137Z,6.40
2017-10-09T06:54:26.742Z,6.40
2017-10-09T06:56:54.307Z,6.50
2017-10-09T06:59:22.666Z,6.60
2017-10-09T07:01:50.245Z,6.60
2017-10-09T07:04:17.833Z,6.60
2017-10-09T07:06:45.412Z,6.70
2017-10-09T07:09:13.016Z,6.80
2017-10-09T07:11:41.316Z,6.90
2017-10-09T07:16:43.665Z,7.00
2017-10-09T07:19:11.235Z,7.10
2017-10-09T07:21:40.031Z,7.20
2017-10-09T07:24:07.600Z,7.20
2017-10-09T07:26:35.188Z,7.20
2017-10-09T07:29:02.820Z,7.20
2017-10-09T07:31:30.896Z,7.20
2017-10-09T07:33:58.456Z,7.20
2017-10-09T07:36:26.788Z,7.30
2017-10-09T07:38:54.371Z,7.30
2017-10-09T07:41:21.960Z,7.40
2017-10-09T07:43:49.544Z,7.50
2017-10-09T07:46:17.877Z,7.60
2017-10-09T07:48:45.468Z,7.50
2017-10-09T07:51:14.035Z,7.60
2017-10-09T07:53:41.604Z,7.50
2017-10-09T07:56:09.164Z,7.70
2017-10-09T07:58:36.755Z,7.80
2017-10-09T08:01:04.344Z,7.80
2017-10-09T08:03:31.912Z,7.80
2017-10-09T08:05:59.500Z,7.90
2017-10-09T08:08:27.832Z,8.10
2017-10-09T08:10:55.401Z,8.10
2017-10-09T08:13:22.987Z,8.20
2017-10-09T08:15:50.575Z,8.20
2017-10-09T08:18:18.228Z,8.40
2017-10-09T08:20:46.204Z,8.60
2017-10-09T08:23:13.772Z,8.60
2017-10-09T08:25:42.104Z,8.70
2017-10-09T08:28:09.702Z,8.70
2017-10-09T08:30:37.267Z,8.80
2017-10-09T08:33:04.852Z,8.90
2017-10-09T08:35:32.419Z,9.00
2017-10-09T08:38:00.045Z,9.10
2017-10-09T08:40:27.704Z,9.20
2017-10-09T08:42:55.491Z,9.20
2017-10-09T08:45:23.830Z,9.30
2017-10-09T08:47:51.422Z,9.30
2017-10-09T08:50:19.788Z,9.30
2017-10-09T08:52:47.352Z,9.30
2017-10-09T08:55:14.947Z,9.50
2017-10-09T08:57:43.768Z,9.80
2017-10-09T09:00:11.352Z,9.80
2017-10-09T09:02:38.923Z,10.00
2017-10-09T09:05:06.525Z,10.00
2017-10-09T09:07:34.096Z,10.10
2017-10-09T09:10:01.709Z,10.10
2017-10-09T09:12:30.788Z,10.60
2017-10-09T09:14:58.352Z,10.60
2017-10-09T09:17:25.940Z,10.90
2017-10-09T09:19:54.269Z,11.40
2017-10-09T09:22:21.862Z,11.40
2017-10-09T09:24:49.436Z,11.50
2017-10-09T09:27:17.806Z,11.80
2017-10-09T09:29:46.880Z,11.90
2017-10-09T09:32:14.570Z,11.90
2017-10-09T09:34:43.756Z,11.80
2017-10-09T09:37:11.359Z,11.80
2017-10-09T09:39:38.925Z,11.80
2017-10-09T09:42:06.492Z,11.80
2017-10-09T09:44:34.087Z,11.80
2017-10-09T09:47:01.652Z,12.00
2017-10-09T09:49:29.235Z,12.00
2017-10-09T09:51:57.608Z,12.00
2017-10-09T09:54:25.192Z,12.00
2017-10-09T09:56:53.543Z,12.00
2017-10-09T09:59:21.132Z,11.90
2017-10-09T10:01:49.464Z,11.90
2017-10-09T10:04:17.056Z,11.90
2017-10-09T10:06:45.396Z,11.60
2017-10-09T10:09:12.983Z,11.60
2017-10-09T10:11:42.871Z,11.80
2017-10-09T10:14:10.470Z,11.80
2017-10-09T10:16:38.805Z,11.90
2017-10-09T10:19:06.408Z,11.90
2017-10-09T10:21:33.976Z,11.90
2017-10-09T10:24:02.319Z,11.70
2017-10-09T10:26:29.911Z,11.70
2017-10-09T10:28:58.259Z,11.40
2017-10-09T10:31:25.940Z,11.40
2017-10-09T10:33:53.504Z,11.40
2017-10-09T10:36:21.468Z,11.50
2017-10-09T10:38:49.800Z,11.90
2017-10-09T10:41:17.367Z,11.90
2017-10-09T10:43:44.947Z,12.30
2017-10-09T10:46:12.508Z,12.70
2017-10-09T10:48:41.012Z,13.10
2017-10-09T10:51:08.581Z,13.40
2017-10-09T10:53:36.172Z,14.00
2017-10-09T10:56:03.735Z,14.60
2017-10-09T10:58:31.560Z,14.90
2017-10-09T11:00:59.119Z,14.80
2017-10-09T11:03:26.779Z,14.80
2017-10-09T11:05:55.168Z,14.70
2017-10-09T11:08:22.975Z,14.70
2017-10-09T11:10:50.560Z,14.60
2017-10-09T11:13:18.148Z,14.60
2017-10-09T11:15:45.742Z,14.80
2017-10-09T11:18:13.313Z,14.90
2017-10-09T11:20:42.765Z,15.40
2017-10-09T11:23:10.336Z,15.30
2017-10-09T11:25:37.920Z,15.20
2017-10-09T11:28:06.249Z,14.00
2017-10-09T11:30:34.347Z,14.00
2017-10-09T11:33:01.912Z,13.90
2017-10-09T11:35:29.485Z,14.30
2017-10-09T11:37:57.841Z,14.40
2017-10-09T11:40:25.405Z,14.40
2017-10-09T11:42:53.072Z,15.00
2017-10-09T11:45:20.640Z,16.10
2017-10-09T11:47:48.223Z,18.10
2017-10-09T11:50:16.553Z,16.70
2017-10-09T11:52:44.936Z,16.50
2017-10-09T11:55:12.800Z,16.50
2017-10-09T11:57:41.408Z,16.40
2017-10-09T12:00:08.981Z,16.20
2017-10-09T12:02:37.339Z,15.20
2017-10-09T12:05:05.009Z,15.20
2017-10-09T12:07:32.672Z,14.80
2017-10-09T12:10:00.235Z,14.30
2017-10-09T12:12:27.828Z,14.10
2017-10-09T12:14:55.387Z,13.90
2017-10-09T12:17:22.972Z,13.60
2017-10-09T12:19:50.864Z,13.60
2017-10-09T12:22:18.540Z,13.60
2017-10-09T12:24:46.113Z,13.60
2017-10-09T12:27:13.763Z,13.60
2017-10-09T12:29:42.827Z,14.90
2017-10-09T12:32:10.429Z,14.90
2017-10-09T12:34:38.088Z,15.40
2017-10-09T12:37:07.156Z,16.00
2017-10-09T12:39:34.765Z,16.00
2017-10-09T12:42:03.096Z,15.50
2017-10-09T12:44:30.660Z,15.40
2017-10-09T12:46:58.248Z,15.10
2017-10-09T12:49:25.807Z,15.10
2017-10-09T12:51:53.395Z,14.70
2017-10-09T12:54:21.720Z,14.50
2017-10-09T12:56:49.319Z,14.50
2017-10-09T12:59:17.644Z,14.80
2017-10-09T13:01:45.208Z,14.80
2017-10-09T13:04:12.908Z,15.10
2017-10-09T13:06:41.392Z,15.20
2017-10-09T13:09:08.979Z,15.30
2017-10-09T13:11:37.313Z,14.50
2017-10-09T13:14:05.605Z,14.50
2017-10-09T13:16:33.932Z,13.60
2017-10-09T13:19:01.548Z,13.60
2017-10-09T13:21:29.119Z,13.50
2017-10-09T13:23:57.791Z,13.20
2017-10-09T13:26:25.351Z,13.10
2017-10-09T13:28:52.920Z,13.20
2017-10-09T13:31:22.015Z,13.00
2017-10-09T13:33:49.583Z,13.00
2017-10-09T13:36:17.947Z,13.80
2017-10-09T13:38:46.284Z,15.70
2017-10-09T13:41:13.867Z,15.70
2017-10-09T13:43:42.847Z,15.60
2017-10-09T13:46:10.432Z,15.60
2017-10-09T13:48:38.103Z,14.50
2017-10-09T13:51:05.687Z,13.80
2017-10-09T13:53:34.012Z,13.70
2017-10-09T13:56:01.608Z,13.70
2017-10-09T13:58:29.172Z,13.60
2017-10-09T14:00:56.769Z,13.50
2017-10-09T14:03:24.388Z,13.30
2017-10-09T14:05:51.979Z,13.20
2017-10-09T14:08:20.304Z,13.30
2017-10-09T14:10:47.906Z,13.30
2017-10-09T14:13:16.231Z,15.50
2017-10-09T14:15:43.869Z,15.40
2017-10-09T14:18:11.496Z,15.50
2017-10-09T14:20:39.444Z,14.90
2017-10-09T14:23:07.007Z,14.50
2017-10-09T14:25:34.567Z,14.00
2017-10-09T14:28:02.245Z,13.70
2017-10-09T14:30:29.911Z,13.50
2017-10-09T14:40:20.248Z,12.60
2017-10-09T14:42:47.836Z,12.40
2017-10-09T14:45:16.164Z,12.20
2017-10-09T14:47:43.885Z,12.20
2017-10-09T14:50:12.217Z,12.00
2017-10-09T14:52:40.162Z,12.00
2017-10-09T14:55:07.764Z,12.00
2017-10-09T14:57:35.332Z,11.80
2017-10-09T15:00:02.923Z,11.80
2017-10-09T15:02:30.484Z,11.70
2017-10-09T15:04:58.072Z,11.60
2017-10-09T15:07:25.632Z,11.60
2017-10-09T15:09:53.241Z,11.50
2017-10-09T15:12:21.582Z,11.30
2017-10-09T15:14:49.289Z,11.30
2017-10-09T15:17:17.616Z,11.20
2017-10-09T15:19:45.186Z,11.20
2017-10-09T15:22:12.790Z,11.20
2017-10-09T15:24:42.044Z,11.20
2017-10-09T15:27:09.632Z,11.10
2017-10-09T15:29:37.191Z,11.10
2017-10-09T15:32:06.309Z,11.00
2017-10-09T15:34:34.638Z,11.00
2017-10-09T15:37:02.200Z,11.00
2017-10-09T15:39:29.788Z,10.90
2017-10-09T15:41:57.360Z,10.90
2017-10-09T15:44:24.944Z,10.90
2017-10-09T15:46:52.508Z,10.80
2017-10-09T15:49:20.096Z,10.80
2017-10-09T15:51:47.668Z,10.80
2017-10-09T15:54:15.268Z,10.70
2017-10-09T15:56:44.521Z,10.70
2017-10-09T15:59:12.102Z,10.60
2017-10-09T16:01:39.879Z,10.60
2017-10-09T16:04:07.436Z,10.60
2017-10-09T16:06:34.997Z,10.50
2017-10-09T16:09:02.584Z,10.50
2017-10-09T16:11:30.907Z,10.40
2017-10-09T16:13:58.494Z,10.40
2017-10-09T16:16:26.064Z,10.40
2017-10-09T16:18:53.647Z,10.40
2017-10-09T16:21:21.970Z,10.20
2017-10-09T16:23:49.558Z,10.20
2017-10-09T16:26:17.889Z,10.10
2017-10-09T16:28:45.481Z,10.10
2017-10-09T16:31:13.052Z,10.10
2017-10-09T16:33:42.197Z,10.10
2017-10-09T16:36:09.765Z,10.10
2017-10-09T16:38:37.508Z,10.00
2017-10-09T16:41:05.841Z,10.10
2017-10-09T16:43:33.400Z,10.10
2017-10-09T16:46:00.984Z,10.00
2017-10-09T16:48:28.552Z,10.10
2017-10-09T16:50:56.149Z,10.00
2017-10-09T16:53:23.720Z,10.00
2017-10-09T16:55:51.308Z,10.10
2017-10-09T16:58:19.172Z,10.00
2017-10-09T17:00:46.768Z,10.00
2017-10-09T17:03:15.136Z,10.00
2017-10-09T17:05:44.196Z,10.00
2017-10-09T17:08:11.849Z,10.00
2017-10-09T17:10:39.537Z,10.00
2017-10-09T17:13:07.121Z,10.00
2017-10-09T17:15:34.776Z,10.00
2017-10-09T17:18:02.748Z,10.00
2017-10-09T17:20:30.312Z,10.00
2017-10-09T17:22:58.260Z,10.00
2017-10-09T17:25:25.843Z,10.00
2017-10-09T17:27:53.409Z,9.90
2017-10-09T17:30:20.991Z,9.90
2017-10-09T17:32:49.341Z,9.80
2017-10-09T17:35:16.919Z,9.80
2017-10-09T17:37:45.253Z,9.80
2017-10-09T17:40:13.249Z,9.80
2017-10-09T17:42:42.040Z,9.70
2017-10-09T17:45:09.601Z,9.70
2017-10-09T17:47:37.181Z,9.60
2017-10-09T17:50:05.530Z,9.60
2017-10-09T17:52:34.626Z,9.50
2017-10-09T17:55:02.196Z,9.50
2017-10-09T17:57:29.779Z,9.60
2017-10-09T17:59:58.108Z,9.50
2017-10-09T18:02:25.691Z,9.50
2017-10-09T18:04:54.028Z,9.50
2017-10-09T18:07:21.612Z,9.50
2017-10-09T18:09:49.176Z,9.50
2017-10-09T18:12:16.772Z,9.50
2017-10-09T18:14:45.113Z,9.50
2017-10-09T18:17:12.676Z,9.50
2017-10-09T18:19:41.193Z,9.50
2017-10-09T18:22:09.537Z,9.50
2017-10-09T18:24:37.128Z,9.50
2017-10-09T18:27:04.688Z,9.50
2017-10-09T18:29:32.282Z,9.50
2017-10-09T18:31:59.844Z,9.40
2017-10-09T18:34:27.457Z,9.40
2017-10-09T18:36:55.808Z,9.40
2017-10-09T18:39:23.396Z,9.30
2017-10-09T18:41:50.961Z,9.40
2017-10-09T18:44:18.552Z,9.30
2017-10-09T18:46:46.890Z,9.30
2017-10-09T18:49:16.004Z,9.30
2017-10-09T18:51:44.287Z,9.30
2017-10-09T18:54:12.620Z,9.30
2017-10-09T18:56:41.125Z,9.30
2017-10-09T18:59:08.688Z,9.30
2017-10-09T19:01:36.277Z,9.30
2017-10-09T19:04:05.178Z,9.30
2017-10-09T19:06:33.546Z,9.30
2017-10-09T19:09:01.929Z,9.20
2017-10-09T19:11:29.509Z,9.20
2017-10-09T19:13:57.096Z,9.20
2017-10-09T19:16:24.665Z,9.20
2017-10-09T19:18:52.462Z,9.10
2017-10-09T19:21:20.032Z,9.10
2017-10-09T19:23:48.365Z,9.10
2017-10-09T19:26:15.956Z,9.10
2017-10-09T19:28:43.943Z,9.10
2017-10-09T19:31:12.292Z,9.00
2017-10-09T19:33:39.852Z,9.00
2017-10-09T19:36:07.437Z,9.00
2017-10-09T19:38:35.880Z,9.00
2017-10-09T19:41:03.672Z,9.00
2017-10-09T19:43:32.740Z,9.00
2017-10-09T19:46:00.304Z,9.00
2017-10-09T19:48:27.893Z,9.00
2017-10-09T19:50:55.452Z,9.00
2017-10-09T19:53:23.053Z,9.10
2017-10-09T19:55:50.624Z,9.10
2017-10-09T19:58:18.209Z,9.10
2017-10-09T20:00:45.773Z,9.10
2017-10-09T20:03:13.351Z,9.10
2017-10-09T20:05:42.148Z,9.10
2017-10-09T20:08:10.523Z,9.10
2017-10-09T20:10:38.103Z,9.10
2017-10-09T20:13:06.424Z,9.10
2017-10-09T20:15:34.009Z,9.10
2017-10-09T20:18:01.577Z,9.10
2017-10-09T20:20:29.164Z,9.10
2017-10-09T20:22:57.496Z,9.10
2017-10-09T20:25:25.081Z,9.10
2017-10-09T20:27:52.644Z,9.10
2017-10-09T20:30:20.229Z,9.10
2017-10-09T20:32:48.585Z,9.10
2017-10-09T20:35:16.352Z,9.10
2017-10-09T20:37:44.904Z,9.00
2017-10-09T20:40:12.476Z,9.10
2017-10-09T20:42:40.061Z,9.10
2017-10-09T20:45:07.653Z,9.10
2017-10-09T20:47:35.278Z,9.10
2017-10-09T20:50:02.844Z,9.10
2017-10-09T20:52:30.461Z,9.10
2017-10-09T20:54:58.031Z,9.10
2017-10-09T20:57:25.593Z,9.20
2017-10-09T20:59:53.177Z,9.20
2017-10-09T21:02:21.508Z,9.30
2017-10-09T21:04:49.124Z,9.30
2017-10-09T21:07:16.684Z,9.30
2017-10-09T21:09:44.272Z,9.30
2017-10-09T21:12:12.631Z,9.40
2017-10-09T21:14:40.220Z,9.40
2017-10-09T21:17:07.820Z,9.40
2017-10-09T21:19:35.420Z,9.40
2017-10-09T21:22:03.757Z,9.30
2017-10-09T21:24:31.327Z,9.30
2017-10-09T21:26:58.924Z,9.30
2017-10-09T21:29:27.491Z,9.20
2017-10-09T21:31:55.052Z,9.20
2017-10-09T21:34:22.612Z,9.20
2017-10-09T21:36:50.201Z,9.20
2017-10-09T21:39:18.537Z,9.10
2017-10-09T21:41:46.137Z,9.10
2017-10-09T21:44:14.532Z,9.10
2017-10-09T21:46:43.277Z,9.10
2017-10-09T21:49:10.843Z,9.10
2017-10-09T21:51:38.408Z,9.10
2017-10-09T21:54:06.060Z,9.10
2017-10-09T21:56:33.620Z,9.00
2017-10-09T21:59:01.221Z,9.00
2017-10-09T22:01:28.806Z,9.00
2017-10-09T22:03:56.408Z,9.00
2017-10-09T22:06:23.969Z,9.00
2017-10-09T22:08:51.565Z,9.00
2017-10-09T22:11:19.136Z,9.00
2017-10-09T22:13:46.709Z,8.90
2017-10-09T22:16:14.297Z,8.90
2017-10-09T22:18:42.190Z,8.90
2017-10-09T22:21:10.548Z,8.90
2017-10-09T22:23:38.108Z,8.90
2017-10-09T22:26:05.706Z,8.90
2017-10-09T22:28:33.523Z,8.90
2017-10-09T22:31:01.117Z,8.90
2017-10-09T22:33:29.449Z,8.90
2017-10-09T22:35:57.048Z,8.90
2017-10-09T22:38:25.377Z,8.90
2017-10-09T22:40:52.968Z,8.90
2017-10-09T22:43:20.536Z,8.90
2017-10-09T22:45:48.133Z,9.00
2017-10-09T22:48:15.703Z,9.00
2017-10-09T22:50:44.902Z,9.00
2017-10-09T22:53:12.536Z,9.00
2017-10-09T22:55:41.796Z,9.00
2017-10-09T22:58:09.392Z,9.00
2017-10-09T23:00:36.964Z,9.00
2017-10-09T23:03:05.333Z,9.00
2017-10-09T23:05:32.909Z,9.00
2017-10-09T23:08:01.276Z,9.00
2017-10-09T23:10:29.657Z,9.00
2017-10-09T23:12:57.270Z,9.00
2017-10-09T23:15:24.833Z,9.00
2017-10-09T23:17:52.401Z,9.00
2017-10-09T23:20:20.068Z,9.00
2017-10-09T23:22:47.636Z,9.00
2017-10-09T23:25:15.232Z,9.00
2017-10-09T23:27:44.796Z,9.00
2017-10-09T23:30:12.388Z,9.00
2017-10-09T23:32:40.049Z,9.00
2017-10-09T23:35:07.687Z,9.00
2017-10-09T23:37:35.245Z,9.00
2017-10-09T23:40:03.244Z,9.00
2017-10-09T23:42:31.583Z,9.00
2017-10-09T23:44:59.151Z,9.00
2017-10-09T23:47:26.742Z,9.00
2017-10-09T23:49:55.432Z,9.00
2017-10-09T23:52:23.772Z,9.00
2017-10-09T23:54:51.369Z,9.00
2017-10-09T23:57:18.964Z,9.00
2017-10-09T23:59:46.532Z,9.10
